Time;durP1;ratioP1;P1;durP2;ratioP2;P2;SDS_P1;SDS_P2;PMS_P1;PMS_P2;Temp;Humidity;BMP_temperature;BMP_pressure;BME280_temperature;BME280_humidity;BME280_pressure;Samples;Min_cycle;Max_cycle;Signal;HPM_P1;HPM_P2
2023/05/01 00:01:04;;;;;;;16.48;8.32;;;;;;;;;;5056978;28;20049;-81
2023/05/01 00:03:30;;;;;;;12.75;6.40;;;;;;;;;;5055172;28;20067;-83
2023/05/01 00:06:00;;;;;;;12.27;6.13;;;;;;;;;;5058284;28;20045;-82
2023/05/01 00:08:26;;;;;;;9.70;5.63;;;;;;;;;;5063481;28;20045;-82
2023/05/01 00:10:52;;;;;;;11.75;6.50;;;;;;;;;;5061414;28;20118;-81
2023/05/01 00:13:20;;;;;;;14.43;6.43;;;;;;;;;;5061964;28;20124;-82
2023/05/01 00:15:46;;;;;;;12.60;6.07;;;;;;;;;;5064984;28;20045;-81
2023/05/01 00:18:13;;;;;;;10.55;5.82;;;;;;;;;;5065348;28;20041;-82
2023/05/01 00:20:39;;;;;;;12.38;5.65;;;;;;;;;;5065226;28;20049;-82
2023/05/01 00:23:05;;;;;;;10.85;5.55;;;;;;;;;;5045359;28;20132;-82
2023/05/01 00:25:32;;;;;;;9.32;5.50;;;;;;;;;;5063435;28;20073;-82
2023/05/01 00:27:58;;;;;;;10.82;5.47;;;;;;;;;;5064967;28;20483;-82
2023/05/01 00:30:26;;;;;;;12.45;5.70;;;;;;;;;;5066542;28;20380;-81
2023/05/01 00:32:52;;;;;;;10.52;5.57;;;;;;;;;;5065112;28;20037;-81
2023/05/01 00:35:18;;;;;;;10.93;5.63;;;;;;;;;;5065344;28;20123;-81
2023/05/01 00:37:44;;;;;;;10.50;5.70;;;;;;;;;;5062771;28;20053;-82
2023/05/01 00:40:10;;;;;;;9.43;5.32;;;;;;;;;;5035234;28;20036;-83
2023/05/01 00:42:38;;;;;;;10.88;5.80;;;;;;;;;;5051556;28;20044;-83
2023/05/01 00:45:07;;;;;;;11.50;5.47;;;;;;;;;;5051598;28;20095;-82
2023/05/01 00:47:36;;;;;;;10.43;5.55;;;;;;;;;;5049551;28;20065;-82
2023/05/01 00:50:03;;;;;;;13.20;5.80;;;;;;;;;;5048731;28;20049;-83
2023/05/01 00:52:29;;;;;;;11.80;6.05;;;;;;;;;;5050562;28;20041;-83
2023/05/01 00:54:55;;;;;;;9.48;5.32;;;;;;;;;;5048879;28;20112;-83
2023/05/01 00:57:21;;;;;;;10.98;5.40;;;;;;;;;;5049825;28;20328;-82
2023/05/01 00:59:47;;;;;;;11.95;6.13;;;;;;;;;;5050974;28;20056;-82
2023/05/01 01:02:14;;;;;;;12.52;6.32;;;;;;;;;;5050831;28;20048;-82
2023/05/01 01:04:44;;;;;;;10.52;6.20;;;;;;;;;;5049637;28;20050;-82
2023/05/01 01:07:18;;;;;;;12.52;6.28;;;;;;;;;;5036292;28;20051;-82
2023/05/01 01:10:04;;;;;;;10.52;6.32;;;;;;;;;;5032687;28;20054;-81
2023/05/01 01:12:33;;;;;;;9.75;6.15;;;;;;;;;;5042243;28;20053;-82
2023/05/01 01:15:13;;;;;;;12.13;6.65;;;;;;;;;;5044356;28;20133;-82
2023/05/01 01:17:52;;;;;;;10.85;6.90;;;;;;;;;;5062967;28;20044;-82
2023/05/01 01:20:37;;;;;;;13.52;6.82;;;;;;;;;;5063502;28;20120;-82
2023/05/01 01:23:17;;;;;;;11.57;6.60;;;;;;;;;;5062697;28;20063;-81
2023/05/01 01:25:50;;;;;;;12.93;6.53;;;;;;;;;;5059895;28;20071;-82
2023/05/01 01:28:31;;;;;;;11.00;6.50;;;;;;;;;;5044377;28;20052;-83
2023/05/01 01:31:10;;;;;;;11.80;7.50;;;;;;;;;;5062744;28;20049;-83
2023/05/01 01:33:48;;;;;;;13.02;6.88;;;;;;;;;;5047636;28;20061;-82
2023/05/01 01:36:18;;;;;;;13.30;7.50;;;;;;;;;;5044176;28;20056;-82
2023/05/01 01:38:53;;;;;;;11.07;6.82;;;;;;;;;;5047196;28;20602;-84
2023/05/01 01:41:39;;;;;;;11.30;7.43;;;;;;;;;;5053608;28;20136;-83
2023/05/01 01:44:19;;;;;;;12.60;7.40;;;;;;;;;;5053973;28;20045;-83
2023/05/01 01:46:47;;;;;;;14.38;8.00;;;;;;;;;;5036423;28;20056;-83
2023/05/01 01:49:17;;;;;;;14.52;7.65;;;;;;;;;;5054204;28;20068;-82
2023/05/01 01:51:45;;;;;;;12.13;7.57;;;;;;;;;;5053171;28;20114;-82
2023/05/01 01:54:12;;;;;;;12.27;7.68;;;;;;;;;;5053920;28;20202;-84
2023/05/01 01:56:40;;;;;;;9.38;6.75;;;;;;;;;;5053031;28;20451;-82
2023/05/01 01:59:07;;;;;;;13.07;7.80;;;;;;;;;;5049960;28;20041;-84
2023/05/01 02:01:34;;;;;;;12.75;7.32;;;;;;;;;;5054601;28;20071;-83
2023/05/01 02:04:02;;;;;;;11.27;6.40;;;;;;;;;;5054176;28;20051;-83
2023/05/01 02:06:28;;;;;;;12.65;6.70;;;;;;;;;;5056353;28;20044;-83
2023/05/01 02:08:56;;;;;;;16.38;6.57;;;;;;;;;;5027902;28;20052;-82
2023/05/01 02:11:22;;;;;;;10.98;6.35;;;;;;;;;;5055970;28;20041;-82
2023/05/01 02:13:49;;;;;;;14.00;7.30;;;;;;;;;;5046521;28;20045;-82
2023/05/01 02:16:15;;;;;;;13.13;7.60;;;;;;;;;;5062895;28;20071;-82
2023/05/01 02:18:42;;;;;;;14.95;8.07;;;;;;;;;;5065656;28;20041;-82
2023/05/01 02:21:10;;;;;;;17.83;8.23;;;;;;;;;;5053725;28;20048;-82
2023/05/01 02:23:37;;;;;;;13.25;7.60;;;;;;;;;;5055251;28;20503;-82
2023/05/01 02:26:03;;;;;;;14.73;7.38;;;;;;;;;;5065220;28;20045;-82
2023/05/01 02:28:29;;;;;;;14.20;8.02;;;;;;;;;;5047166;28;20052;-81
2023/05/01 02:30:56;;;;;;;12.95;7.57;;;;;;;;;;5063523;28;20067;-82
2023/05/01 02:33:22;;;;;;;12.80;7.28;;;;;;;;;;5064607;28;20056;-82
2023/05/01 02:35:48;;;;;;;12.90;7.70;;;;;;;;;;5048264;28;20453;-81
2023/05/01 02:38:15;;;;;;;13.57;7.95;;;;;;;;;;5065383;28;20048;-83
2023/05/01 02:40:44;;;;;;;15.57;7.40;;;;;;;;;;5064374;28;20437;-81
2023/05/01 02:43:12;;;;;;;17.20;7.25;;;;;;;;;;5064660;28;20088;-82
2023/05/01 02:45:40;;;;;;;12.15;7.53;;;;;;;;;;5062866;28;20041;-82
2023/05/01 02:48:07;;;;;;;12.43;7.38;;;;;;;;;;5062018;28;20507;-83
2023/05/01 02:50:34;;;;;;;15.43;7.35;;;;;;;;;;5044837;28;20045;-84
2023/05/01 02:53:01;;;;;;;13.52;7.05;;;;;;;;;;5056160;28;20068;-83
2023/05/01 02:55:28;;;;;;;14.52;7.35;;;;;;;;;;5057753;28;20098;-83
2023/05/01 02:57:57;;;;;;;14.63;7.10;;;;;;;;;;5062508;28;20044;-82
2023/05/01 03:00:23;;;;;;;13.48;7.85;;;;;;;;;;5061846;28;20067;-82
2023/05/01 03:02:49;;;;;;;11.07;7.15;;;;;;;;;;5044579;28;20084;-82
2023/05/01 03:05:16;;;;;;;14.07;7.68;;;;;;;;;;5054602;28;20045;-81
2023/05/01 03:07:42;;;;;;;13.60;7.65;;;;;;;;;;5052599;28;20049;-82
2023/05/01 03:10:08;;;;;;;13.40;7.22;;;;;;;;;;5054236;28;20045;-83
2023/05/01 03:12:34;;;;;;;13.98;7.28;;;;;;;;;;5060748;28;20052;-82
2023/05/01 03:15:00;;;;;;;14.30;7.82;;;;;;;;;;5059466;28;20086;-82
2023/05/01 03:17:28;;;;;;;14.18;7.75;;;;;;;;;;5060003;28;20045;-83
2023/05/01 03:19:54;;;;;;;13.10;7.20;;;;;;;;;;5031520;28;20057;-82
2023/05/01 03:22:20;;;;;;;13.70;7.38;;;;;;;;;;5044331;28;20076;-83
2023/05/01 03:24:47;;;;;;;13.82;7.30;;;;;;;;;;5060064;28;20064;-82
2023/05/01 03:27:13;;;;;;;12.70;7.28;;;;;;;;;;5060021;28;20102;-82
2023/05/01 03:29:39;;;;;;;13.57;7.50;;;;;;;;;;5061541;28;20075;-82
2023/05/01 03:32:06;;;;;;;15.73;7.30;;;;;;;;;;5061015;28;20052;-82
2023/05/01 03:34:33;;;;;;;14.95;7.10;;;;;;;;;;5061977;28;20037;-82
2023/05/01 03:36:59;;;;;;;15.23;7.45;;;;;;;;;;5054619;28;20052;-85
2023/05/01 03:39:25;;;;;;;12.23;7.47;;;;;;;;;;5052835;28;20053;-83
2023/05/01 03:41:51;;;;;;;13.07;8.02;;;;;;;;;;5052137;28;20041;-83
2023/05/01 03:44:17;;;;;;;12.25;7.40;;;;;;;;;;5052236;28;20045;-83
2023/05/01 03:46:43;;;;;;;13.65;7.40;;;;;;;;;;5051789;28;20037;-82
2023/05/01 03:49:09;;;;;;;13.23;7.20;;;;;;;;;;5052535;28;20060;-83
2023/05/01 03:51:35;;;;;;;14.50;7.88;;;;;;;;;;5037082;28;20459;-83
2023/05/01 03:54:02;;;;;;;13.38;7.20;;;;;;;;;;5058330;28;20048;-83
2023/05/01 03:56:34;;;;;;;11.65;7.72;;;;;;;;;;5056704;28;20391;-81
2023/05/01 03:59:00;;;;;;;13.27;7.32;;;;;;;;;;5037259;28;20056;-82
2023/05/01 04:01:26;;;;;;;12.88;7.07;;;;;;;;;;5054351;28;20098;-83
2023/05/01 04:03:52;;;;;;;15.27;7.82;;;;;;;;;;5039019;28;20049;-83
2023/05/01 04:06:19;;;;;;;10.80;7.70;;;;;;;;;;5052734;28;20045;-83
2023/05/01 04:08:45;;;;;;;11.57;7.72;;;;;;;;;;5038007;28;20094;-82
2023/05/01 04:11:11;;;;;;;14.48;7.82;;;;;;;;;;5055593;28;20049;-82
2023/05/01 04:13:37;;;;;;;13.00;7.60;;;;;;;;;;5048216;28;20051;-82
2023/05/01 04:16:03;;;;;;;16.48;8.45;;;;;;;;;;5065049;28;20040;-82
2023/05/01 04:18:30;;;;;;;14.85;8.05;;;;;;;;;;5066568;28;20053;-82
2023/05/01 04:20:56;;;;;;;13.07;7.68;;;;;;;;;;5043788;28;20056;-82
2023/05/01 04:23:22;;;;;;;13.57;8.10;;;;;;;;;;5060530;28;20064;-82
2023/05/01 04:25:48;;;;;;;15.32;7.80;;;;;;;;;;5064208;28;20403;-82
2023/05/01 04:28:14;;;;;;;10.15;7.68;;;;;;;;;;5046147;28;20041;-82
2023/05/01 04:30:40;;;;;;;15.02;8.40;;;;;;;;;;5063368;28;20049;-82
2023/05/01 04:33:10;;;;;;;15.90;8.23;;;;;;;;;;5063473;28;20060;-82
2023/05/01 04:35:39;;;;;;;16.05;8.55;;;;;;;;;;5061406;28;20120;-82
2023/05/01 04:38:05;;;;;;;20.58;8.85;;;;;;;;;;5059863;28;20040;-82
2023/05/01 04:40:31;;;;;;;17.75;8.57;;;;;;;;;;5062678;28;20041;-82
2023/05/01 04:42:57;;;;;;;20.05;8.18;;;;;;;;;;5061333;28;20052;-82
2023/05/01 04:45:23;;;;;;;17.70;8.35;;;;;;;;;;5061127;28;20095;-82
2023/05/01 04:47:49;;;;;;;15.35;7.90;;;;;;;;;;5060771;28;20045;-81
2023/05/01 04:50:16;;;;;;;17.13;8.73;;;;;;;;;;5061724;28;20033;-81
2023/05/01 04:52:42;;;;;;;14.30;8.02;;;;;;;;;;5044673;28;20050;-82
2023/05/01 04:55:08;;;;;;;15.10;8.38;;;;;;;;;;5042518;28;20056;-82
2023/05/01 04:57:34;;;;;;;15.70;8.27;;;;;;;;;;5054945;28;20055;-82
2023/05/01 05:00:02;;;;;;;16.17;8.57;;;;;;;;;;5052751;28;20384;-84
2023/05/01 05:02:28;;;;;;;17.48;9.07;;;;;;;;;;5052594;28;20537;-83
2023/05/01 05:04:55;;;;;;;16.83;8.30;;;;;;;;;;5034236;28;20068;-82
2023/05/01 05:07:21;;;;;;;13.77;8.40;;;;;;;;;;5055682;28;20048;-82
2023/05/01 05:09:47;;;;;;;31.17;9.63;;;;;;;;;;5054323;28;20041;-82
2023/05/01 05:12:16;;;;;;;15.95;8.15;;;;;;;;;;5057542;28;20052;-81
2023/05/01 05:14:42;;;;;;;14.23;8.68;;;;;;;;;;5033721;28;20487;-84
2023/05/01 05:17:08;;;;;;;14.98;8.35;;;;;;;;;;5052342;28;20064;-83
2023/05/01 05:19:35;;;;;;;16.52;8.82;;;;;;;;;;5028549;28;20049;-82
2023/05/01 05:22:03;;;;;;;16.88;8.43;;;;;;;;;;5052648;28;20048;-82
2023/05/01 05:24:30;;;;;;;16.55;8.88;;;;;;;;;;5055293;28;20052;-83
2023/05/01 05:26:56;;;;;;;18.40;8.32;;;;;;;;;;5052373;28;20116;-82
2023/05/01 05:29:22;;;;;;;13.70;8.05;;;;;;;;;;5052888;28;20072;-83
2023/05/01 05:31:48;;;;;;;13.73;8.25;;;;;;;;;;5052170;28;20037;-83
2023/05/01 05:34:14;;;;;;;14.75;8.13;;;;;;;;;;5050264;28;20049;-84
2023/05/01 05:36:40;;;;;;;16.67;8.38;;;;;;;;;;5033829;28;20141;-84
2023/05/01 05:39:06;;;;;;;14.48;8.23;;;;;;;;;;5050145;28;20063;-83
2023/05/01 05:41:33;;;;;;;14.90;8.27;;;;;;;;;;5051365;28;20044;-82
2023/05/01 05:43:59;;;;;;;11.23;7.35;;;;;;;;;;5052230;28;20038;-83
2023/05/01 05:46:25;;;;;;;10.90;7.07;;;;;;;;;;5050386;28;20040;-84
2023/05/01 05:48:51;;;;;;;11.77;7.00;;;;;;;;;;5052765;28;20094;-84
2023/05/01 05:51:18;;;;;;;13.63;7.20;;;;;;;;;;5014854;28;20217;-82
2023/05/01 05:53:44;;;;;;;10.20;6.80;;;;;;;;;;5054556;28;20095;-82
2023/05/01 05:56:10;;;;;;;12.23;7.03;;;;;;;;;;5055027;28;20044;-82
2023/05/01 05:58:36;;;;;;;14.63;7.00;;;;;;;;;;5047880;28;20072;-83
2023/05/01 06:01:02;;;;;;;14.23;6.97;;;;;;;;;;5051812;28;20045;-83
2023/05/01 06:03:28;;;;;;;12.25;6.90;;;;;;;;;;5052196;28;20045;-83
2023/05/01 06:05:54;;;;;;;11.65;6.43;;;;;;;;;;5054244;28;20052;-82
2023/05/01 06:08:21;;;;;;;11.70;6.38;;;;;;;;;;5054318;28;20045;-82
2023/05/01 06:10:47;;;;;;;10.45;6.70;;;;;;;;;;5057414;28;20049;-82
2023/05/01 06:13:13;;;;;;;11.80;6.18;;;;;;;;;;5052159;28;20124;-81
2023/05/01 06:15:40;;;;;;;12.05;6.53;;;;;;;;;;5067440;28;20056;-81
2023/05/01 06:18:06;;;;;;;15.02;6.88;;;;;;;;;;5064265;28;20041;-82
2023/05/01 06:20:32;;;;;;;16.30;7.22;;;;;;;;;;5065818;28;20049;-82
2023/05/01 06:22:58;;;;;;;11.48;6.82;;;;;;;;;;5064227;28;20041;-84
2023/05/01 06:25:24;;;;;;;11.10;6.22;;;;;;;;;;5062229;28;20049;-83
2023/05/01 06:27:51;;;;;;;12.52;6.45;;;;;;;;;;5064421;28;20128;-83
2023/05/01 06:30:18;;;;;;;11.43;6.53;;;;;;;;;;5063994;28;20045;-82
2023/05/01 06:32:45;;;;;;;12.10;6.30;;;;;;;;;;5062857;28;20080;-83
2023/05/01 06:35:11;;;;;;;13.27;6.35;;;;;;;;;;5061700;28;20049;-82
2023/05/01 06:37:38;;;;;;;10.13;6.13;;;;;;;;;;5081011;28;20075;-83
2023/05/01 06:40:05;;;;;;;12.05;6.60;;;;;;;;;;5073129;28;20041;-82
2023/05/01 06:42:31;;;;;;;12.90;6.40;;;;;;;;;;5061009;28;20041;-81
2023/05/01 06:44:57;;;;;;;14.10;6.65;;;;;;;;;;5053498;28;20530;-82
2023/05/01 06:47:23;;;;;;;13.10;6.15;;;;;;;;;;5042799;28;20091;-82
2023/05/01 06:49:49;;;;;;;12.30;6.55;;;;;;;;;;5056125;28;20442;-82
2023/05/01 06:52:15;;;;;;;14.27;6.53;;;;;;;;;;5062868;28;20053;-82
2023/05/01 06:54:41;;;;;;;10.63;6.32;;;;;;;;;;5061007;28;20072;-82
2023/05/01 06:57:07;;;;;;;12.38;6.18;;;;;;;;;;5062915;28;20071;-82
2023/05/01 06:59:33;;;;;;;13.00;6.53;;;;;;;;;;5062846;28;20071;-82
2023/05/01 07:01:59;;;;;;;11.70;6.40;;;;;;;;;;5061758;28;20063;-83
2023/05/01 07:04:25;;;;;;;10.82;6.50;;;;;;;;;;5062141;28;20140;-82
2023/05/01 07:06:52;;;;;;;12.20;5.63;;;;;;;;;;5062422;28;20052;-82
2023/05/01 07:09:18;;;;;;;11.18;6.05;;;;;;;;;;5061149;28;20406;-82
2023/05/01 07:11:44;;;;;;;11.88;6.18;;;;;;;;;;5026750;28;20099;-82
2023/05/01 07:14:10;;;;;;;11.32;5.90;;;;;;;;;;5060484;28;20075;-81
2023/05/01 07:16:36;;;;;;;9.90;5.55;;;;;;;;;;5061315;28;20053;-82
2023/05/01 07:19:02;;;;;;;13.02;5.50;;;;;;;;;;5062872;28;20049;-82
2023/05/01 07:21:28;;;;;;;8.65;4.85;;;;;;;;;;5062057;28;20048;-82
2023/05/01 07:23:54;;;;;;;10.90;5.38;;;;;;;;;;5065280;28;20049;-82
2023/05/01 07:26:20;;;;;;;12.18;4.88;;;;;;;;;;5076693;28;20045;-82
2023/05/01 07:28:46;;;;;;;10.60;5.15;;;;;;;;;;5078801;28;20112;-82
2023/05/01 07:31:12;;;;;;;9.52;5.15;;;;;;;;;;5076523;28;20049;-82
2023/05/01 07:33:38;;;;;;;9.50;4.80;;;;;;;;;;5062292;28;20502;-81
2023/05/01 07:36:08;;;;;;;9.43;4.95;;;;;;;;;;5029166;28;20045;-82
2023/05/01 07:38:34;;;;;;;11.32;5.20;;;;;;;;;;5080421;28;20044;-82
2023/05/01 07:41:00;;;;;;;12.00;5.30;;;;;;;;;;5087624;28;20052;-82
2023/05/01 07:43:26;;;;;;;13.57;5.40;;;;;;;;;;5083835;28;20066;-81
2023/05/01 07:46:00;;;;;;;11.48;5.00;;;;;;;;;;5064361;28;20137;-83
2023/05/01 07:48:27;;;;;;;12.02;5.70;;;;;;;;;;5047186;28;20049;-82
2023/05/01 07:50:53;;;;;;;9.93;4.88;;;;;;;;;;5064491;28;20048;-81
2023/05/01 07:53:21;;;;;;;10.60;5.30;;;;;;;;;;5066456;28;20499;-82
2023/05/01 07:55:48;;;;;;;11.50;5.30;;;;;;;;;;5063626;28;20064;-83
2023/05/01 07:58:14;;;;;;;11.95;6.00;;;;;;;;;;5066324;28;20041;-82
2023/05/01 08:00:40;;;;;;;10.75;5.57;;;;;;;;;;5065482;28;20053;-82
2023/05/01 08:03:06;;;;;;;10.80;5.22;;;;;;;;;;5061125;28;20399;-82
2023/05/01 08:05:32;;;;;;;9.02;5.10;;;;;;;;;;5028270;28;20055;-82
2023/05/01 08:07:58;;;;;;;9.80;5.60;;;;;;;;;;5063148;28;20055;-82
2023/05/01 08:10:24;;;;;;;10.68;5.18;;;;;;;;;;5065049;28;20125;-82
2023/05/01 08:12:51;;;;;;;11.82;5.18;;;;;;;;;;5064518;28;20049;-82
2023/05/01 08:15:17;;;;;;;9.55;4.97;;;;;;;;;;5063887;28;20079;-82
2023/05/01 08:17:43;;;;;;;12.27;4.90;;;;;;;;;;5063110;28;20037;-82
2023/05/01 08:20:09;;;;;;;10.73;5.18;;;;;;;;;;5057826;28;20041;-81
2023/05/01 08:22:35;;;;;;;10.77;5.40;;;;;;;;;;5042579;28;20148;-82
2023/05/01 08:25:01;;;;;;;10.55;5.15;;;;;;;;;;5025052;28;20049;-82
2023/05/01 08:27:27;;;;;;;10.00;5.28;;;;;;;;;;5046675;28;20053;-83
2023/05/01 08:29:53;;;;;;;11.30;5.00;;;;;;;;;;5058697;28;20041;-82
2023/05/01 08:32:20;;;;;;;12.43;5.10;;;;;;;;;;5044167;28;20049;-82
2023/05/01 08:34:46;;;;;;;10.57;5.40;;;;;;;;;;5042859;28;20053;-82
2023/05/01 08:37:12;;;;;;;12.65;5.95;;;;;;;;;;5031663;28;20479;-83
2023/05/01 08:39:38;;;;;;;11.32;5.18;;;;;;;;;;5064321;28;20483;-82
2023/05/01 08:42:04;;;;;;;12.48;5.78;;;;;;;;;;5064130;28;20053;-82
2023/05/01 08:44:31;;;;;;;10.15;5.20;;;;;;;;;;5062788;28;20079;-81
2023/05/01 08:47:06;;;;;;;14.07;5.45;;;;;;;;;;5063071;28;20045;-82
2023/05/01 08:49:33;;;;;;;13.20;5.38;;;;;;;;;;5055257;28;20487;-82
2023/05/01 08:52:02;;;;;;;11.45;5.88;;;;;;;;;;5061515;28;20049;-82
2023/05/01 08:54:29;;;;;;;13.07;6.20;;;;;;;;;;5061437;28;20051;-82
2023/05/01 08:56:57;;;;;;;11.65;5.20;;;;;;;;;;5059339;28;20045;-83
2023/05/01 08:59:24;;;;;;;8.75;4.93;;;;;;;;;;5060979;28;20499;-82
2023/05/01 09:01:51;;;;;;;10.10;5.50;;;;;;;;;;5065280;28;20045;-82
2023/05/01 09:04:17;;;;;;;9.60;5.25;;;;;;;;;;5046867;28;20052;-83
2023/05/01 09:06:44;;;;;;;10.43;5.50;;;;;;;;;;5055115;28;20060;-82
2023/05/01 09:09:10;;;;;;;11.20;5.30;;;;;;;;;;5065617;28;20068;-84
2023/05/01 09:11:36;;;;;;;12.27;5.63;;;;;;;;;;5064879;28;20049;-82
2023/05/01 09:14:07;;;;;;;11.90;5.60;;;;;;;;;;5048802;28;20472;-82
2023/05/01 09:16:33;;;;;;;10.20;5.53;;;;;;;;;;5065505;28;20045;-82
2023/05/01 09:18:59;;;;;;;9.93;5.70;;;;;;;;;;5065121;28;20068;-81
2023/05/01 09:21:28;;;;;;;10.73;5.53;;;;;;;;;;5065534;28;20087;-82
2023/05/01 09:23:54;;;;;;;14.80;6.10;;;;;;;;;;5046971;28;20056;-83
2023/05/01 09:26:20;;;;;;;11.23;5.20;;;;;;;;;;5065694;28;20055;-83
2023/05/01 09:28:47;;;;;;;11.07;5.53;;;;;;;;;;5055011;28;20124;-82
2023/05/01 09:31:26;;;;;;;11.93;4.90;;;;;;;;;;5044169;28;20053;-84
2023/05/01 09:33:56;;;;;;;10.57;4.70;;;;;;;;;;5044465;28;20132;-82
2023/05/01 09:36:23;;;;;;;8.80;4.40;;;;;;;;;;5044461;28;20041;-82
2023/05/01 09:38:50;;;;;;;8.65;4.80;;;;;;;;;;5061736;28;20335;-83
2023/05/01 09:41:16;;;;;;;10.90;4.60;;;;;;;;;;5064981;28;20049;-81
2023/05/01 09:43:48;;;;;;;8.80;4.57;;;;;;;;;;5057338;28;20041;-82
2023/05/01 09:46:14;;;;;;;9.93;4.75;;;;;;;;;;5040418;28;20045;-82
2023/05/01 09:48:40;;;;;;;10.05;4.60;;;;;;;;;;5046364;28;20083;-82
2023/05/01 09:51:22;;;;;;;11.55;5.53;;;;;;;;;;5045960;28;20059;-82
2023/05/01 09:53:48;;;;;;;9.52;4.95;;;;;;;;;;5063807;28;20092;-83
2023/05/01 09:56:14;;;;;;;11.43;5.18;;;;;;;;;;5065119;28;20041;-82
2023/05/01 09:58:40;;;;;;;10.65;5.38;;;;;;;;;;5065803;28;20097;-82
2023/05/01 10:01:07;;;;;;;10.07;5.05;;;;;;;;;;5063062;28;20080;-81
2023/05/01 10:03:34;;;;;;;9.98;5.20;;;;;;;;;;5054265;28;20049;-83
2023/05/01 10:06:02;;;;;;;11.10;4.63;;;;;;;;;;5044931;28;20076;-83
2023/05/01 10:08:47;;;;;;;10.15;4.78;;;;;;;;;;5045895;28;20053;-82
2023/05/01 10:11:13;;;;;;;12.55;5.25;;;;;;;;;;5044624;28;20077;-83
2023/05/01 10:13:39;;;;;;;9.13;3.90;;;;;;;;;;5051469;28;20068;-82
2023/05/01 10:16:27;;;;;;;8.95;4.13;;;;;;;;;;5067010;28;20091;-83
2023/05/01 10:18:54;;;;;;;12.95;4.50;;;;;;;;;;5067765;28;20052;-82
2023/05/01 10:21:20;;;;;;;11.50;4.43;;;;;;;;;;5065608;28;20491;-82
2023/05/01 10:23:46;;;;;;;9.10;4.30;;;;;;;;;;5062992;28;20371;-83
2023/05/01 10:26:15;;;;;;;10.50;4.40;;;;;;;;;;5064603;28;20044;-83
2023/05/01 10:28:41;;;;;;;6.75;3.35;;;;;;;;;;5065208;28;20045;-82
2023/05/01 10:31:08;;;;;;;10.88;4.20;;;;;;;;;;5064178;28;20045;-82
2023/05/01 10:33:35;;;;;;;8.70;3.65;;;;;;;;;;5063515;28;20037;-82
2023/05/01 10:36:02;;;;;;;8.30;3.78;;;;;;;;;;5063105;28;20053;-81
2023/05/01 10:38:36;;;;;;;8.80;3.63;;;;;;;;;;5048590;28;20121;-81
2023/05/01 10:41:02;;;;;;;9.07;3.90;;;;;;;;;;5048698;28;20049;-81
2023/05/01 10:43:30;;;;;;;13.68;3.40;;;;;;;;;;5043068;28;20132;-82
2023/05/01 10:46:25;;;;;;;11.32;3.33;;;;;;;;;;5043812;28;20041;-82
2023/05/01 10:48:55;;;;;;;8.15;3.40;;;;;;;;;;5044291;28;20045;-81
2023/05/01 10:51:23;;;;;;;10.37;3.33;;;;;;;;;;5043573;28;20052;-83
2023/05/01 10:54:09;;;;;;;10.40;3.10;;;;;;;;;;5055110;28;20103;-80
2023/05/01 10:56:35;;;;;;;11.90;3.60;;;;;;;;;;5060088;28;20091;-83
2023/05/01 10:59:08;;;;;;;9.73;2.92;;;;;;;;;;5042182;28;20041;-81
2023/05/01 11:01:39;;;;;;;7.75;2.33;;;;;;;;;;5062390;28;20124;-81
2023/05/01 11:04:26;;;;;;;8.35;2.65;;;;;;;;;;5044966;28;20094;-82
2023/05/01 11:07:04;;;;;;;7.75;2.63;;;;;;;;;;5049134;28;20045;-81
2023/05/01 11:09:53;;;;;;;8.45;2.90;;;;;;;;;;5028463;28;20049;-82
2023/05/01 11:12:37;;;;;;;7.43;3.63;;;;;;;;;;5043673;28;20042;-82
2023/05/01 11:15:07;;;;;;;9.05;3.03;;;;;;;;;;5046703;28;20049;-82
2023/05/01 11:17:39;;;;;;;9.27;2.90;;;;;;;;;;5063912;28;20055;-82
2023/05/01 11:20:06;;;;;;;7.88;3.05;;;;;;;;;;5062907;28;20076;-81
2023/05/01 11:22:33;;;;;;;8.10;3.20;;;;;;;;;;5063015;28;20055;-80
2023/05/01 11:25:00;;;;;;;8.38;3.20;;;;;;;;;;5044295;28;20097;-80
2023/05/01 11:27:26;;;;;;;8.25;3.63;;;;;;;;;;5056275;28;20557;-81
2023/05/01 11:29:53;;;;;;;8.45;3.42;;;;;;;;;;5043006;28;20076;-81
2023/05/01 11:32:23;;;;;;;8.38;3.40;;;;;;;;;;5042977;28;20045;-82
2023/05/01 11:34:50;;;;;;;7.97;3.03;;;;;;;;;;5024994;28;20042;-81
2023/05/01 11:37:16;;;;;;;9.30;2.88;;;;;;;;;;5058475;28;20115;-82
2023/05/01 11:39:52;;;;;;;7.50;2.85;;;;;;;;;;5057331;28;20041;-82
2023/05/01 11:42:21;;;;;;;8.63;3.70;;;;;;;;;;5044145;28;20057;-82
2023/05/01 11:45:06;;;;;;;10.98;4.20;;;;;;;;;;5061219;28;20045;-82
2023/05/01 11:47:32;;;;;;;8.25;3.25;;;;;;;;;;5060318;28;20041;-85
2023/05/01 11:50:00;;;;;;;11.15;3.40;;;;;;;;;;5060664;28;20104;-82
2023/05/01 11:52:26;;;;;;;12.75;3.30;;;;;;;;;;5047579;28;20128;-81
2023/05/01 11:54:52;;;;;;;10.77;3.30;;;;;;;;;;5044292;28;20060;-81
2023/05/01 11:57:19;;;;;;;7.97;3.15;;;;;;;;;;5063124;28;20123;-82
2023/05/01 11:59:48;;;;;;;8.15;2.90;;;;;;;;;;5062494;28;20478;-82
2023/05/01 12:02:18;;;;;;;8.75;2.95;;;;;;;;;;5062416;28;20124;-83
2023/05/01 12:04:44;;;;;;;7.13;2.95;;;;;;;;;;5062903;28;20075;-81
2023/05/01 12:07:19;;;;;;;7.20;3.22;;;;;;;;;;5062787;28;20426;-80
2023/05/01 12:09:46;;;;;;;11.55;3.45;;;;;;;;;;5062181;28;20076;-80
2023/05/01 12:12:12;;;;;;;8.40;3.20;;;;;;;;;;5066590;28;20385;-81
2023/05/01 12:14:38;;;;;;;7.22;3.35;;;;;;;;;;5065337;28;20041;-82
2023/05/01 12:17:05;;;;;;;7.72;2.90;;;;;;;;;;5046964;28;20479;-81
2023/05/01 12:19:32;;;;;;;7.95;2.70;;;;;;;;;;5063975;28;20056;-83
2023/05/01 12:22:08;;;;;;;7.60;2.65;;;;;;;;;;5061059;28;20049;-84
2023/05/01 12:24:34;;;;;;;8.90;3.08;;;;;;;;;;5026243;28;20041;-83
2023/05/01 12:27:02;;;;;;;8.40;2.53;;;;;;;;;;5063137;28;20049;-81
2023/05/01 12:29:40;;;;;;;9.35;3.05;;;;;;;;;;5066512;28;20045;-82
2023/05/01 12:32:06;;;;;;;7.07;3.13;;;;;;;;;;5049324;28;20048;-83
2023/05/01 12:34:33;;;;;;;7.20;2.78;;;;;;;;;;5066612;28;20537;-81
2023/05/01 12:36:59;;;;;;;10.05;2.95;;;;;;;;;;5066495;28;20066;-81
2023/05/01 12:39:25;;;;;;;10.30;3.28;;;;;;;;;;5067246;28;20044;-81
2023/05/01 12:41:53;;;;;;;6.85;2.85;;;;;;;;;;5059347;28;20081;-82
2023/05/01 12:44:23;;;;;;;6.30;2.47;;;;;;;;;;5048300;28;20049;-81
2023/05/01 12:46:59;;;;;;;7.40;2.58;;;;;;;;;;5031701;28;20068;-81
2023/05/01 12:49:26;;;;;;;6.38;2.80;;;;;;;;;;5048700;28;20484;-81
2023/05/01 12:51:55;;;;;;;6.47;2.40;;;;;;;;;;5065708;28;20132;-82
2023/05/01 12:54:22;;;;;;;7.55;2.35;;;;;;;;;;5071106;28;20052;-81
2023/05/01 12:56:48;;;;;;;6.25;1.67;;;;;;;;;;5069259;28;20045;-82
2023/05/01 12:59:24;;;;;;;6.75;1.77;;;;;;;;;;5066792;28;20124;-81
2023/05/01 13:02:00;;;;;;;7.53;2.00;;;;;;;;;;5066263;28;20048;-81
2023/05/01 13:04:26;;;;;;;5.40;1.90;;;;;;;;;;5067343;28;20041;-81
2023/05/01 13:06:56;;;;;;;4.90;1.60;;;;;;;;;;5047212;28;20041;-82
2023/05/01 13:09:26;;;;;;;5.30;1.77;;;;;;;;;;5066571;28;20063;-82
2023/05/01 13:12:07;;;;;;;6.55;2.20;;;;;;;;;;5066510;28;20045;-82
2023/05/01 13:14:37;;;;;;;6.03;1.80;;;;;;;;;;5066816;28;20053;-82
2023/05/01 13:17:05;;;;;;;5.22;1.65;;;;;;;;;;5066259;28;20408;-82
2023/05/01 13:19:31;;;;;;;6.38;1.48;;;;;;;;;;5065505;28;20049;-82
2023/05/01 13:21:57;;;;;;;4.15;1.30;;;;;;;;;;5065101;28;20048;-81
2023/05/01 13:24:43;;;;;;;5.35;1.63;;;;;;;;;;5061265;28;20209;-81
2023/05/01 13:27:11;;;;;;;5.13;1.40;;;;;;;;;;5047003;28;20053;-82
2023/05/01 13:29:41;;;;;;;4.30;1.27;;;;;;;;;;5044789;28;20050;-82
2023/05/01 13:32:10;;;;;;;8.57;1.65;;;;;;;;;;5046032;28;20068;-82
2023/05/01 13:34:36;;;;;;;6.03;1.50;;;;;;;;;;5044990;28;20052;-82
2023/05/01 13:37:02;;;;;;;9.43;1.88;;;;;;;;;;5045090;28;20045;-82
2023/05/01 13:39:28;;;;;;;8.05;2.13;;;;;;;;;;5044843;28;20125;-82
2023/05/01 13:41:54;;;;;;;6.63;2.38;;;;;;;;;;5042105;28;20045;-82
2023/05/01 13:44:22;;;;;;;5.97;2.20;;;;;;;;;;5037203;28;20071;-82
2023/05/01 13:46:48;;;;;;;6.97;2.25;;;;;;;;;;5043020;28;20045;-83
2023/05/01 13:49:14;;;;;;;7.03;2.35;;;;;;;;;;5039019;28;20045;-83
2023/05/01 13:51:41;;;;;;;4.55;1.90;;;;;;;;;;5035914;28;20107;-82
2023/05/01 13:54:08;;;;;;;7.68;2.28;;;;;;;;;;5049844;28;20045;-82
2023/05/01 13:56:35;;;;;;;7.25;2.10;;;;;;;;;;5035273;28;20391;-83
2023/05/01 13:59:01;;;;;;;7.38;2.00;;;;;;;;;;5034459;28;20069;-83
2023/05/01 14:01:27;;;;;;;5.10;2.10;;;;;;;;;;5039621;28;20063;-83
2023/05/01 14:04:01;;;;;;;6.07;1.70;;;;;;;;;;5042186;28;20499;-82
2023/05/01 14:06:27;;;;;;;4.68;1.48;;;;;;;;;;5045481;28;20041;-81
2023/05/01 14:08:57;;;;;;;6.13;1.50;;;;;;;;;;5042245;28;20061;-81
2023/05/01 14:11:23;;;;;;;6.25;1.90;;;;;;;;;;5043223;28;20048;-83
2023/05/01 14:13:50;;;;;;;5.78;1.50;;;;;;;;;;5043576;28;20059;-84
2023/05/01 14:16:19;;;;;;;5.65;1.30;;;;;;;;;;5045864;28;20077;-81
2023/05/01 14:18:46;;;;;;;6.10;1.50;;;;;;;;;;5044705;28;20105;-82
2023/05/01 14:21:16;;;;;;;5.40;1.70;;;;;;;;;;5040619;28;20041;-83
2023/05/01 14:23:43;;;;;;;5.43;1.60;;;;;;;;;;5072295;28;20060;-82
2023/05/01 14:26:10;;;;;;;5.15;1.42;;;;;;;;;;5071944;28;20045;-81
2023/05/01 14:28:42;;;;;;;4.90;1.67;;;;;;;;;;5077517;28;20051;-82
2023/05/01 14:31:08;;;;;;;8.50;2.13;;;;;;;;;;5063832;28;20072;-82
2023/05/01 14:33:42;;;;;;;7.22;2.20;;;;;;;;;;5062548;28;20052;-82
2023/05/01 14:36:08;;;;;;;6.10;2.05;;;;;;;;;;5057251;28;20056;-81
2023/05/01 14:38:38;;;;;;;6.32;2.05;;;;;;;;;;5067687;28;20512;-83